Terminal Aerodrome Forecast
Issued by NWS

Home | Current Version | Previous Version | Text Only | Print | Product List | Glossary On
Versions: 1 2 3 4 5 6 7 8 9 10 11 12 13 14 15 16
868
FTUS43 KABR 231723
TAFATY
TAF
KATY 231723Z 2318/2418 16016G22KT P6SM VCSH OVC017
     FM232000 15011KT P6SM VCSH OVC012
     FM240200 07006KT 6SM BR VCSH OVC005
     FM240700 03009KT 2SM BR OVC003
     FM241400 02015G24KT 2SM BR OVC008
     FM241700 02015G24KT 4SM BR OVC015=

USA.gov is the U.S. government's official web portal to all federal, state and local government web resources and services.